sensor_id;sensor_type;location;lat;lon;timestamp;temperature;humidity
27647;DHT22;42229;51.230;6.240;2022-09-06T00:01:46;22.40;88.70
27647;DHT22;42229;51.230;6.240;2022-09-06T00:04:12;22.40;90.50
27647;DHT22;42229;51.230;6.240;2022-09-06T00:06:38;22.30;91.40
27647;DHT22;42229;51.230;6.240;2022-09-06T00:09:04;22.20;91.40
27647;DHT22;42229;51.230;6.240;2022-09-06T00:11:30;22.10;92.60
27647;DHT22;42229;51.230;6.240;2022-09-06T00:13:57;22.00;92.40
27647;DHT22;42229;51.230;6.240;2022-09-06T00:16:23;21.90;92.20
27647;DHT22;42229;51.230;6.240;2022-09-06T00:18:53;21.70;92.50
27647;DHT22;42229;51.230;6.240;2022-09-06T00:21:24;21.60;93.30
27647;DHT22;42229;51.230;6.240;2022-09-06T00:23:51;21.50;90.30
27647;DHT22;42229;51.230;6.240;2022-09-06T00:26:18;21.30;89.40
27647;DHT22;42229;51.230;6.240;2022-09-06T00:28:45;21.20;90.60
27647;DHT22;42229;51.230;6.240;2022-09-06T00:31:19;21.10;92.60
27647;DHT22;42229;51.230;6.240;2022-09-06T00:33:47;21.00;94.20
27647;DHT22;42229;51.230;6.240;2022-09-06T00:36:13;20.90;92.80
27647;DHT22;42229;51.230;6.240;2022-09-06T00:38:40;20.80;97.50
27647;DHT22;42229;51.230;6.240;2022-09-06T00:41:07;20.80;96.70
27647;DHT22;42229;51.230;6.240;2022-09-06T00:43:35;20.80;97.00
27647;DHT22;42229;51.230;6.240;2022-09-06T00:46:01;20.70;99.20
27647;DHT22;42229;51.230;6.240;2022-09-06T00:48:28;20.70;98.20
27647;DHT22;42229;51.230;6.240;2022-09-06T00:50:56;20.60;98.50
27647;DHT22;42229;51.230;6.240;2022-09-06T00:53:25;20.60;99.50
27647;DHT22;42229;51.230;6.240;2022-09-06T00:55:51;20.60;99.20
27647;DHT22;42229;51.230;6.240;2022-09-06T00:58:18;20.50;99.20
27647;DHT22;42229;51.230;6.240;2022-09-06T01:00:45;20.40;98.30
27647;DHT22;42229;51.230;6.240;2022-09-06T01:03:11;20.40;98.60
27647;DHT22;42229;51.230;6.240;2022-09-06T01:05:41;20.40;98.40
27647;DHT22;42229;51.230;6.240;2022-09-06T01:11:08;20.20;98.10
27647;DHT22;42229;51.230;6.240;2022-09-06T01:13:47;20.20;96.80
27647;DHT22;42229;51.230;6.240;2022-09-06T01:28:05;20.00;92.60
27647;DHT22;42229;51.230;6.240;2022-09-06T01:36:09;19.90;92.90
27647;DHT22;42229;51.230;6.240;2022-09-06T01:38:38;19.90;92.00
27647;DHT22;42229;51.230;6.240;2022-09-06T01:41:05;19.90;91.80
27647;DHT22;42229;51.230;6.240;2022-09-06T01:43:32;19.90;91.90
27647;DHT22;42229;51.230;6.240;2022-09-06T01:46:44;19.90;91.70
27647;DHT22;42229;51.230;6.240;2022-09-06T01:56:46;20.00;91.70
27647;DHT22;42229;51.230;6.240;2022-09-06T02:02:17;20.00;92.10
27647;DHT22;42229;51.230;6.240;2022-09-06T02:04:49;20.00;92.30
27647;DHT22;42229;51.230;6.240;2022-09-06T02:07:37;20.00;91.20
27647;DHT22;42229;51.230;6.240;2022-09-06T02:10:07;20.00;91.00
27647;DHT22;42229;51.230;6.240;2022-09-06T02:12:36;20.00;91.00
27647;DHT22;42229;51.230;6.240;2022-09-06T02:15:14;20.00;90.90
27647;DHT22;42229;51.230;6.240;2022-09-06T02:17:50;20.00;91.10
27647;DHT22;42229;51.230;6.240;2022-09-06T02:20:21;20.00;92.30
27647;DHT22;42229;51.230;6.240;2022-09-06T02:22:49;20.00;93.20
27647;DHT22;42229;51.230;6.240;2022-09-06T02:26:02;19.90;93.70
27647;DHT22;42229;51.230;6.240;2022-09-06T02:28:10;20.00;94.90
27647;DHT22;42229;51.230;6.240;2022-09-06T02:30:41;20.00;94.40
27647;DHT22;42229;51.230;6.240;2022-09-06T02:33:11;19.90;95.20
27647;DHT22;42229;51.230;6.240;2022-09-06T02:35:45;19.90;94.30
27647;DHT22;42229;51.230;6.240;2022-09-06T02:38:13;19.90;93.40
27647;DHT22;42229;51.230;6.240;2022-09-06T02:40:40;19.80;92.50
27647;DHT22;42229;51.230;6.240;2022-09-06T02:43:07;19.80;92.90
27647;DHT22;42229;51.230;6.240;2022-09-06T02:45:33;19.80;93.20
27647;DHT22;42229;51.230;6.240;2022-09-06T02:47:59;19.80;93.00
27647;DHT22;42229;51.230;6.240;2022-09-06T02:50:26;19.80;93.00
27647;DHT22;42229;51.230;6.240;2022-09-06T02:53:08;19.80;93.80
27647;DHT22;42229;51.230;6.240;2022-09-06T02:55:36;19.80;94.10
27647;DHT22;42229;51.230;6.240;2022-09-06T02:58:03;19.80;93.30
27647;DHT22;42229;51.230;6.240;2022-09-06T03:00:29;19.80;92.80
27647;DHT22;42229;51.230;6.240;2022-09-06T03:02:55;19.80;93.00
27647;DHT22;42229;51.230;6.240;2022-09-06T03:05:22;19.80;93.10
27647;DHT22;42229;51.230;6.240;2022-09-06T03:07:49;19.80;93.30
27647;DHT22;42229;51.230;6.240;2022-09-06T03:10:16;19.80;93.40
27647;DHT22;42229;51.230;6.240;2022-09-06T03:12:42;19.80;92.90
27647;DHT22;42229;51.230;6.240;2022-09-06T03:15:09;19.80;93.80
27647;DHT22;42229;51.230;6.240;2022-09-06T03:17:36;19.90;94.00
27647;DHT22;42229;51.230;6.240;2022-09-06T03:20:03;19.90;94.00
27647;DHT22;42229;51.230;6.240;2022-09-06T03:22:29;19.90;94.00
27647;DHT22;42229;51.230;6.240;2022-09-06T03:24:56;19.80;93.40
27647;DHT22;42229;51.230;6.240;2022-09-06T03:27:22;19.90;93.10
27647;DHT22;42229;51.230;6.240;2022-09-06T03:29:49;19.80;93.40
27647;DHT22;42229;51.230;6.240;2022-09-06T03:32:15;19.90;93.30
27647;DHT22;42229;51.230;6.240;2022-09-06T03:34:41;19.80;93.20
27647;DHT22;42229;51.230;6.240;2022-09-06T03:37:07;19.90;93.70
27647;DHT22;42229;51.230;6.240;2022-09-06T03:39:34;19.80;94.70
27647;DHT22;42229;51.230;6.240;2022-09-06T03:42:00;19.90;93.90
27647;DHT22;42229;51.230;6.240;2022-09-06T03:44:27;19.80;93.40
27647;DHT22;42229;51.230;6.240;2022-09-06T03:46:53;19.80;93.20
27647;DHT22;42229;51.230;6.240;2022-09-06T03:49:19;19.80;93.20
27647;DHT22;42229;51.230;6.240;2022-09-06T03:51:45;19.80;93.60
27647;DHT22;42229;51.230;6.240;2022-09-06T03:54:12;19.80;93.90
27647;DHT22;42229;51.230;6.240;2022-09-06T03:56:38;19.80;93.80
27647;DHT22;42229;51.230;6.240;2022-09-06T03:59:04;19.80;93.70
27647;DHT22;42229;51.230;6.240;2022-09-06T04:01:30;19.70;94.00
27647;DHT22;42229;51.230;6.240;2022-09-06T04:03:57;19.70;94.90
27647;DHT22;42229;51.230;6.240;2022-09-06T04:06:23;19.60;94.10
27647;DHT22;42229;51.230;6.240;2022-09-06T04:08:49;19.60;94.50
27647;DHT22;42229;51.230;6.240;2022-09-06T04:11:15;19.60;94.30
27647;DHT22;42229;51.230;6.240;2022-09-06T04:13:41;19.50;94.10
27647;DHT22;42229;51.230;6.240;2022-09-06T04:16:08;19.50;94.80
27647;DHT22;42229;51.230;6.240;2022-09-06T04:18:35;19.40;95.30
27647;DHT22;42229;51.230;6.240;2022-09-06T04:21:01;19.40;95.00
27647;DHT22;42229;51.230;6.240;2022-09-06T04:23:28;19.30;95.70
27647;DHT22;42229;51.230;6.240;2022-09-06T04:25:54;19.30;96.80
27647;DHT22;42229;51.230;6.240;2022-09-06T04:28:22;19.20;94.90
27647;DHT22;42229;51.230;6.240;2022-09-06T04:30:56;19.20;95.20
27647;DHT22;42229;51.230;6.240;2022-09-06T04:33:24;19.20;94.60
27647;DHT22;42229;51.230;6.240;2022-09-06T04:35:58;19.10;94.80
27647;DHT22;42229;51.230;6.240;2022-09-06T04:38:26;19.00;95.50
27647;DHT22;42229;51.230;6.240;2022-09-06T04:40:53;19.00;94.90
27647;DHT22;42229;51.230;6.240;2022-09-06T04:43:22;19.00;95.40
27647;DHT22;42229;51.230;6.240;2022-09-06T04:45:49;18.90;94.80
27647;DHT22;42229;51.230;6.240;2022-09-06T04:48:15;18.90;94.80
27647;DHT22;42229;51.230;6.240;2022-09-06T04:50:41;18.90;94.70
27647;DHT22;42229;51.230;6.240;2022-09-06T04:53:08;18.80;94.80
27647;DHT22;42229;51.230;6.240;2022-09-06T04:55:35;18.80;94.80
27647;DHT22;42229;51.230;6.240;2022-09-06T04:58:03;18.80;94.80
27647;DHT22;42229;51.230;6.240;2022-09-06T05:00:30;18.70;94.70
27647;DHT22;42229;51.230;6.240;2022-09-06T05:02:58;18.70;94.80
27647;DHT22;42229;51.230;6.240;2022-09-06T05:05:24;18.60;94.90
27647;DHT22;42229;51.230;6.240;2022-09-06T05:07:51;18.60;95.00
27647;DHT22;42229;51.230;6.240;2022-09-06T05:10:20;18.60;95.10
27647;DHT22;42229;51.230;6.240;2022-09-06T05:12:48;18.60;95.00
27647;DHT22;42229;51.230;6.240;2022-09-06T05:15:15;18.50;95.00
27647;DHT22;42229;51.230;6.240;2022-09-06T05:17:44;18.50;95.30
27647;DHT22;42229;51.230;6.240;2022-09-06T05:20:11;18.50;95.30
27647;DHT22;42229;51.230;6.240;2022-09-06T05:22:38;18.50;95.10
27647;DHT22;42229;51.230;6.240;2022-09-06T05:25:05;18.50;95.30
27647;DHT22;42229;51.230;6.240;2022-09-06T05:27:33;18.50;95.50
27647;DHT22;42229;51.230;6.240;2022-09-06T05:29:59;18.50;95.50
27647;DHT22;42229;51.230;6.240;2022-09-06T05:32:25;18.50;95.30
27647;DHT22;42229;51.230;6.240;2022-09-06T05:34:51;18.50;95.30
27647;DHT22;42229;51.230;6.240;2022-09-06T05:37:18;18.40;95.50
27647;DHT22;42229;51.230;6.240;2022-09-06T05:39:44;18.50;95.70
27647;DHT22;42229;51.230;6.240;2022-09-06T05:42:10;18.50;97.30
27647;DHT22;42229;51.230;6.240;2022-09-06T05:44:36;18.50;96.90
27647;DHT22;42229;51.230;6.240;2022-09-06T05:47:03;18.50;96.50
27647;DHT22;42229;51.230;6.240;2022-09-06T05:49:29;18.50;96.60
27647;DHT22;42229;51.230;6.240;2022-09-06T05:51:56;18.60;96.80
27647;DHT22;42229;51.230;6.240;2022-09-06T05:54:22;18.60;96.80
27647;DHT22;42229;51.230;6.240;2022-09-06T05:56:49;18.70;96.70
27647;DHT22;42229;51.230;6.240;2022-09-06T05:59:15;18.70;97.30
27647;DHT22;42229;51.230;6.240;2022-09-06T06:01:48;18.70;96.90
27647;DHT22;42229;51.230;6.240;2022-09-06T06:04:16;18.80;97.10
27647;DHT22;42229;51.230;6.240;2022-09-06T06:06:43;18.80;97.10
27647;DHT22;42229;51.230;6.240;2022-09-06T06:09:11;18.90;97.80
27647;DHT22;42229;51.230;6.240;2022-09-06T06:11:38;19.00;97.60
27647;DHT22;42229;51.230;6.240;2022-09-06T06:14:05;19.00;97.40
27647;DHT22;42229;51.230;6.240;2022-09-06T06:16:32;19.10;97.80
27647;DHT22;42229;51.230;6.240;2022-09-06T06:18:58;19.10;97.80
27647;DHT22;42229;51.230;6.240;2022-09-06T06:21:25;19.20;98.30
27647;DHT22;42229;51.230;6.240;2022-09-06T06:23:53;19.20;97.60
27647;DHT22;42229;51.230;6.240;2022-09-06T06:26:24;19.30;97.60
27647;DHT22;42229;51.230;6.240;2022-09-06T06:28:51;19.40;99.50
27647;DHT22;42229;51.230;6.240;2022-09-06T06:31:18;19.40;99.50
27647;DHT22;42229;51.230;6.240;2022-09-06T06:33:47;19.50;99.20
27647;DHT22;42229;51.230;6.240;2022-09-06T06:38:40;19.60;99.10
27647;DHT22;42229;51.230;6.240;2022-09-06T06:41:08;19.70;98.00
27647;DHT22;42229;51.230;6.240;2022-09-06T06:43:36;19.80;98.30
27647;DHT22;42229;51.230;6.240;2022-09-06T06:46:03;19.90;98.90
27647;DHT22;42229;51.230;6.240;2022-09-06T06:48:30;20.00;99.90
27647;DHT22;42229;51.230;6.240;2022-09-06T06:50:56;20.00;99.90
27647;DHT22;42229;51.230;6.240;2022-09-06T06:53:23;20.10;99.10
27647;DHT22;42229;51.230;6.240;2022-09-06T06:55:49;20.20;99.70
27647;DHT22;42229;51.230;6.240;2022-09-06T06:58:16;20.30;98.70
27647;DHT22;42229;51.230;6.240;2022-09-06T07:00:42;20.40;98.80
27647;DHT22;42229;51.230;6.240;2022-09-06T07:03:09;20.50;98.40
27647;DHT22;42229;51.230;6.240;2022-09-06T07:05:36;20.60;98.50
27647;DHT22;42229;51.230;6.240;2022-09-06T07:08:03;20.70;98.80
27647;DHT22;42229;51.230;6.240;2022-09-06T07:10:30;20.80;99.20
27647;DHT22;42229;51.230;6.240;2022-09-06T07:12:56;21.00;99.10
27647;DHT22;42229;51.230;6.240;2022-09-06T07:15:23;21.00;99.20
27647;DHT22;42229;51.230;6.240;2022-09-06T07:17:49;21.20;98.70
27647;DHT22;42229;51.230;6.240;2022-09-06T07:20:15;21.30;98.40
27647;DHT22;42229;51.230;6.240;2022-09-06T07:22:42;21.30;98.40
27647;DHT22;42229;51.230;6.240;2022-09-06T07:25:08;21.40;98.60
27647;DHT22;42229;51.230;6.240;2022-09-06T07:27:38;21.50;98.40
27647;DHT22;42229;51.230;6.240;2022-09-06T07:30:04;21.70;99.40
27647;DHT22;42229;51.230;6.240;2022-09-06T07:32:34;21.80;98.70
27647;DHT22;42229;51.230;6.240;2022-09-06T07:35:00;21.90;98.60
27647;DHT22;42229;51.230;6.240;2022-09-06T07:37:26;22.00;98.40
27647;DHT22;42229;51.230;6.240;2022-09-06T07:39:53;22.20;98.60
27647;DHT22;42229;51.230;6.240;2022-09-06T07:42:19;22.30;98.40
27647;DHT22;42229;51.230;6.240;2022-09-06T07:44:45;22.40;98.30
27647;DHT22;42229;51.230;6.240;2022-09-06T07:47:11;22.50;98.20
27647;DHT22;42229;51.230;6.240;2022-09-06T07:49:38;22.50;98.30
27647;DHT22;42229;51.230;6.240;2022-09-06T07:52:04;22.70;98.10
27647;DHT22;42229;51.230;6.240;2022-09-06T07:54:30;22.80;98.10
27647;DHT22;42229;51.230;6.240;2022-09-06T07:56:56;22.90;98.00
27647;DHT22;42229;51.230;6.240;2022-09-06T07:59:23;23.00;98.00
27647;DHT22;42229;51.230;6.240;2022-09-06T08:01:49;23.10;98.00
27647;DHT22;42229;51.230;6.240;2022-09-06T08:04:15;23.20;97.80
27647;DHT22;42229;51.230;6.240;2022-09-06T08:06:45;23.30;97.90
27647;DHT22;42229;51.230;6.240;2022-09-06T08:09:13;23.40;97.80
27647;DHT22;42229;51.230;6.240;2022-09-06T08:11:39;23.50;97.70
27647;DHT22;42229;51.230;6.240;2022-09-06T08:14:06;23.60;97.80
27647;DHT22;42229;51.230;6.240;2022-09-06T08:16:33;23.80;97.70
27647;DHT22;42229;51.230;6.240;2022-09-06T08:19:01;23.90;96.70
27647;DHT22;42229;51.230;6.240;2022-09-06T08:21:32;24.00;97.00
27647;DHT22;42229;51.230;6.240;2022-09-06T08:24:04;24.10;97.40
27647;DHT22;42229;51.230;6.240;2022-09-06T08:26:32;24.20;96.80
27647;DHT22;42229;51.230;6.240;2022-09-06T08:29:00;24.40;97.20
27647;DHT22;42229;51.230;6.240;2022-09-06T08:31:28;24.50;97.20
27647;DHT22;42229;51.230;6.240;2022-09-06T08:33:55;24.60;96.10
27647;DHT22;42229;51.230;6.240;2022-09-06T08:36:22;24.70;96.20
27647;DHT22;42229;51.230;6.240;2022-09-06T08:38:52;24.80;94.40
27647;DHT22;42229;51.230;6.240;2022-09-06T08:41:22;24.90;95.40
27647;DHT22;42229;51.230;6.240;2022-09-06T08:44:02;25.00;96.50
27647;DHT22;42229;51.230;6.240;2022-09-06T08:46:32;25.10;96.40
27647;DHT22;42229;51.230;6.240;2022-09-06T08:49:03;25.20;94.70
27647;DHT22;42229;51.230;6.240;2022-09-06T08:51:48;25.30;94.10
27647;DHT22;42229;51.230;6.240;2022-09-06T08:54:25;25.40;95.10
27647;DHT22;42229;51.230;6.240;2022-09-06T08:57:04;25.50;95.70
27647;DHT22;42229;51.230;6.240;2022-09-06T08:59:39;25.70;96.50
27647;DHT22;42229;51.230;6.240;2022-09-06T09:04:48;25.90;94.70
27647;DHT22;42229;51.230;6.240;2022-09-06T09:10:28;26.00;94.70
27647;DHT22;42229;51.230;6.240;2022-09-06T09:12:57;26.10;94.00
27647;DHT22;42229;51.230;6.240;2022-09-06T09:15:25;26.20;94.40
27647;DHT22;42229;51.230;6.240;2022-09-06T09:17:53;26.30;93.80
27647;DHT22;42229;51.230;6.240;2022-09-06T09:20:20;26.50;95.00
27647;DHT22;42229;51.230;6.240;2022-09-06T09:22:47;26.50;94.90
27647;DHT22;42229;51.230;6.240;2022-09-06T09:25:17;26.70;94.50
27647;DHT22;42229;51.230;6.240;2022-09-06T09:27:46;26.80;94.90
27647;DHT22;42229;51.230;6.240;2022-09-06T09:30:15;26.90;94.70
27647;DHT22;42229;51.230;6.240;2022-09-06T09:32:42;27.00;93.00
27647;DHT22;42229;51.230;6.240;2022-09-06T09:35:31;27.20;94.20
27647;DHT22;42229;51.230;6.240;2022-09-06T09:38:04;27.30;94.50
27647;DHT22;42229;51.230;6.240;2022-09-06T09:40:34;27.40;93.30
27647;DHT22;42229;51.230;6.240;2022-09-06T09:43:09;27.50;89.10
27647;DHT22;42229;51.230;6.240;2022-09-06T09:45:56;27.60;93.50
27647;DHT22;42229;51.230;6.240;2022-09-06T09:48:33;27.70;90.30
27647;DHT22;42229;51.230;6.240;2022-09-06T09:51:14;27.80;91.70
27647;DHT22;42229;51.230;6.240;2022-09-06T09:53:52;27.90;90.90
27647;DHT22;42229;51.230;6.240;2022-09-06T09:59:14;28.00;89.30
27647;DHT22;42229;51.230;6.240;2022-09-06T10:01:43;28.10;91.50
27647;DHT22;42229;51.230;6.240;2022-09-06T10:04:10;28.20;91.50
27647;DHT22;42229;51.230;6.240;2022-09-06T10:06:37;28.30;86.90
27647;DHT22;42229;51.230;6.240;2022-09-06T10:09:18;28.30;87.60
27647;DHT22;42229;51.230;6.240;2022-09-06T10:11:48;28.30;89.70
27647;DHT22;42229;51.230;6.240;2022-09-06T10:14:38;28.40;90.50
27647;DHT22;42229;51.230;6.240;2022-09-06T10:17:07;28.50;84.50
27647;DHT22;42229;51.230;6.240;2022-09-06T10:19:40;28.50;86.60
27647;DHT22;42229;51.230;6.240;2022-09-06T10:36:27;28.70;83.50
27647;DHT22;42229;51.230;6.240;2022-09-06T10:39:00;28.80;81.50
27647;DHT22;42229;51.230;6.240;2022-09-06T10:41:42;28.90;83.10
27647;DHT22;42229;51.230;6.240;2022-09-06T10:44:27;28.90;82.80
27647;DHT22;42229;51.230;6.240;2022-09-06T10:47:15;29.00;81.20
27647;DHT22;42229;51.230;6.240;2022-09-06T10:49:45;29.10;83.70
27647;DHT22;42229;51.230;6.240;2022-09-06T10:52:16;29.10;84.10
27647;DHT22;42229;51.230;6.240;2022-09-06T10:54:45;29.20;81.00
27647;DHT22;42229;51.230;6.240;2022-09-06T10:57:19;29.30;83.40
27647;DHT22;42229;51.230;6.240;2022-09-06T10:59:54;29.40;85.20
27647;DHT22;42229;51.230;6.240;2022-09-06T11:05:06;29.60;77.90
27647;DHT22;42229;51.230;6.240;2022-09-06T11:07:41;29.70;77.40
27647;DHT22;42229;51.230;6.240;2022-09-06T11:10:42;29.70;82.50
27647;DHT22;42229;51.230;6.240;2022-09-06T11:13:36;29.90;79.40
27647;DHT22;42229;51.230;6.240;2022-09-06T11:18:43;30.10;77.60
27647;DHT22;42229;51.230;6.240;2022-09-06T11:21:18;30.20;78.60
27647;DHT22;42229;51.230;6.240;2022-09-06T11:24:05;30.30;78.00
27647;DHT22;42229;51.230;6.240;2022-09-06T11:26:43;30.40;75.90
27647;DHT22;42229;51.230;6.240;2022-09-06T11:29:24;30.50;78.70
27647;DHT22;42229;51.230;6.240;2022-09-06T11:31:55;30.60;76.20
27647;DHT22;42229;51.230;6.240;2022-09-06T11:34:26;30.80;74.70
27647;DHT22;42229;51.230;6.240;2022-09-06T11:36:59;31.00;78.10
27647;DHT22;42229;51.230;6.240;2022-09-06T11:42:07;31.30;74.30
27647;DHT22;42229;51.230;6.240;2022-09-06T11:45:11;31.60;74.60
27647;DHT22;42229;51.230;6.240;2022-09-06T11:47:46;31.90;71.50
27647;DHT22;42229;51.230;6.240;2022-09-06T11:50:26;32.10;75.00
27647;DHT22;42229;51.230;6.240;2022-09-06T11:53:21;32.30;67.10
27647;DHT22;42229;51.230;6.240;2022-09-06T12:00:46;33.20;64.30
27647;DHT22;42229;51.230;6.240;2022-09-06T12:06:14;33.70;58.50
27647;DHT22;42229;51.230;6.240;2022-09-06T12:08:45;34.00;61.60
27647;DHT22;42229;51.230;6.240;2022-09-06T12:11:28;34.10;58.70
27647;DHT22;42229;51.230;6.240;2022-09-06T12:14:02;34.30;53.40
27647;DHT22;42229;51.230;6.240;2022-09-06T12:17:17;34.30;51.90
27647;DHT22;42229;51.230;6.240;2022-09-06T12:28:00;34.70;50.70
27647;DHT22;42229;51.230;6.240;2022-09-06T12:30:33;34.90;52.10
27647;DHT22;42229;51.230;6.240;2022-09-06T12:33:05;34.90;51.60
27647;DHT22;42229;51.230;6.240;2022-09-06T12:35:32;35.00;49.90
27647;DHT22;42229;51.230;6.240;2022-09-06T12:38:01;34.90;47.50
27647;DHT22;42229;51.230;6.240;2022-09-06T12:40:32;34.90;47.50
27647;DHT22;42229;51.230;6.240;2022-09-06T12:43:01;34.90;47.30
27647;DHT22;42229;51.230;6.240;2022-09-06T12:45:28;34.80;49.20
27647;DHT22;42229;51.230;6.240;2022-09-06T12:48:11;34.80;48.30
27647;DHT22;42229;51.230;6.240;2022-09-06T12:50:40;34.80;47.10
27647;DHT22;42229;51.230;6.240;2022-09-06T12:53:18;34.90;47.80
27647;DHT22;42229;51.230;6.240;2022-09-06T12:56:00;35.00;46.50
27647;DHT22;42229;51.230;6.240;2022-09-06T12:58:28;35.10;46.90
27647;DHT22;42229;51.230;6.240;2022-09-06T13:00:55;35.30;47.00
27647;DHT22;42229;51.230;6.240;2022-09-06T13:03:37;35.50;47.60
27647;DHT22;42229;51.230;6.240;2022-09-06T13:06:06;35.70;47.60
27647;DHT22;42229;51.230;6.240;2022-09-06T13:08:44;35.80;47.40
27647;DHT22;42229;51.230;6.240;2022-09-06T13:11:13;36.00;47.50
27647;DHT22;42229;51.230;6.240;2022-09-06T13:13:45;36.10;48.00
27647;DHT22;42229;51.230;6.240;2022-09-06T13:16:23;36.30;47.50
27647;DHT22;42229;51.230;6.240;2022-09-06T13:18:50;36.40;46.80
27647;DHT22;42229;51.230;6.240;2022-09-06T13:21:50;36.60;47.30
27647;DHT22;42229;51.230;6.240;2022-09-06T13:24:18;36.60;44.40
27647;DHT22;42229;51.230;6.240;2022-09-06T13:26:45;36.80;48.30
27647;DHT22;42229;51.230;6.240;2022-09-06T13:29:22;37.00;47.40
27647;DHT22;42229;51.230;6.240;2022-09-06T13:31:50;37.10;44.70
27647;DHT22;42229;51.230;6.240;2022-09-06T13:34:27;37.30;45.10
27647;DHT22;42229;51.230;6.240;2022-09-06T13:37:05;37.40;44.70
27647;DHT22;42229;51.230;6.240;2022-09-06T13:39:34;37.40;44.50
27647;DHT22;42229;51.230;6.240;2022-09-06T13:42:08;37.40;44.20
27647;DHT22;42229;51.230;6.240;2022-09-06T13:44:37;37.40;46.90
27647;DHT22;42229;51.230;6.240;2022-09-06T13:47:04;37.50;49.70
27647;DHT22;42229;51.230;6.240;2022-09-06T13:49:31;37.70;46.50
27647;DHT22;42229;51.230;6.240;2022-09-06T13:51:59;37.80;46.90
27647;DHT22;42229;51.230;6.240;2022-09-06T13:54:26;38.10;45.50
27647;DHT22;42229;51.230;6.240;2022-09-06T13:56:53;38.30;47.30
27647;DHT22;42229;51.230;6.240;2022-09-06T13:59:20;38.60;44.40
27647;DHT22;42229;51.230;6.240;2022-09-06T14:01:54;38.90;45.40
27647;DHT22;42229;51.230;6.240;2022-09-06T14:04:24;39.10;42.60
27647;DHT22;42229;51.230;6.240;2022-09-06T14:06:51;39.20;45.50
27647;DHT22;42229;51.230;6.240;2022-09-06T14:09:17;39.20;42.00
27647;DHT22;42229;51.230;6.240;2022-09-06T14:11:43;39.10;39.30
27647;DHT22;42229;51.230;6.240;2022-09-06T14:14:10;39.00;42.00
27647;DHT22;42229;51.230;6.240;2022-09-06T14:16:37;39.00;41.90
27647;DHT22;42229;51.230;6.240;2022-09-06T14:19:03;38.90;41.50
27647;DHT22;42229;51.230;6.240;2022-09-06T14:21:30;39.00;44.60
27647;DHT22;42229;51.230;6.240;2022-09-06T14:23:56;39.00;42.10
27647;DHT22;42229;51.230;6.240;2022-09-06T14:26:23;39.10;38.70
27647;DHT22;42229;51.230;6.240;2022-09-06T14:28:49;39.30;42.20
27647;DHT22;42229;51.230;6.240;2022-09-06T14:31:16;39.50;44.00
27647;DHT22;42229;51.230;6.240;2022-09-06T14:33:46;39.80;40.50
27647;DHT22;42229;51.230;6.240;2022-09-06T14:36:17;39.90;38.20
27647;DHT22;42229;51.230;6.240;2022-09-06T14:38:44;40.00;41.10
27647;DHT22;42229;51.230;6.240;2022-09-06T14:41:11;40.00;40.10
27647;DHT22;42229;51.230;6.240;2022-09-06T14:43:41;39.90;39.80
27647;DHT22;42229;51.230;6.240;2022-09-06T14:46:11;39.80;39.20
27647;DHT22;42229;51.230;6.240;2022-09-06T14:48:39;39.70;41.20
27647;DHT22;42229;51.230;6.240;2022-09-06T14:51:06;39.60;39.00
27647;DHT22;42229;51.230;6.240;2022-09-06T14:53:33;39.50;38.70
27647;DHT22;42229;51.230;6.240;2022-09-06T14:56:00;39.40;40.00
27647;DHT22;42229;51.230;6.240;2022-09-06T14:58:29;39.30;38.50
27647;DHT22;42229;51.230;6.240;2022-09-06T15:01:16;39.30;39.90
27647;DHT22;42229;51.230;6.240;2022-09-06T15:03:45;39.30;40.60
27647;DHT22;42229;51.230;6.240;2022-09-06T15:06:13;39.30;40.80
27647;DHT22;42229;51.230;6.240;2022-09-06T15:08:40;39.40;43.80
27647;DHT22;42229;51.230;6.240;2022-09-06T15:11:07;39.50;40.90
27647;DHT22;42229;51.230;6.240;2022-09-06T15:13:34;39.60;39.80
27647;DHT22;42229;51.230;6.240;2022-09-06T15:16:02;39.80;37.70
27647;DHT22;42229;51.230;6.240;2022-09-06T15:18:32;39.90;37.70
27647;DHT22;42229;51.230;6.240;2022-09-06T15:21:11;40.00;37.40
27647;DHT22;42229;51.230;6.240;2022-09-06T15:23:39;40.00;37.00
27647;DHT22;42229;51.230;6.240;2022-09-06T15:26:06;40.00;37.90
27647;DHT22;42229;51.230;6.240;2022-09-06T15:28:34;40.00;38.10
27647;DHT22;42229;51.230;6.240;2022-09-06T15:31:02;40.10;40.00
27647;DHT22;42229;51.230;6.240;2022-09-06T15:33:29;40.10;36.80
27647;DHT22;42229;51.230;6.240;2022-09-06T15:35:56;40.20;38.10
27647;DHT22;42229;51.230;6.240;2022-09-06T15:38:22;40.20;38.60
27647;DHT22;42229;51.230;6.240;2022-09-06T15:40:49;40.20;38.30
27647;DHT22;42229;51.230;6.240;2022-09-06T15:43:15;40.20;38.10
27647;DHT22;42229;51.230;6.240;2022-09-06T15:45:48;40.20;37.90
27647;DHT22;42229;51.230;6.240;2022-09-06T15:48:15;40.00;36.70
27647;DHT22;42229;51.230;6.240;2022-09-06T15:50:42;39.80;38.00
27647;DHT22;42229;51.230;6.240;2022-09-06T15:53:10;39.60;37.40
27647;DHT22;42229;51.230;6.240;2022-09-06T15:55:36;39.40;37.00
27647;DHT22;42229;51.230;6.240;2022-09-06T15:58:24;39.30;37.20
27647;DHT22;42229;51.230;6.240;2022-09-06T16:01:10;39.20;37.40
27647;DHT22;42229;51.230;6.240;2022-09-06T16:03:39;39.10;38.40
27647;DHT22;42229;51.230;6.240;2022-09-06T16:06:09;39.10;37.50
27647;DHT22;42229;51.230;6.240;2022-09-06T16:08:36;39.20;39.00
27647;DHT22;42229;51.230;6.240;2022-09-06T16:11:08;39.30;38.20
27647;DHT22;42229;51.230;6.240;2022-09-06T16:13:39;39.30;38.30
27647;DHT22;42229;51.230;6.240;2022-09-06T16:16:07;39.40;37.10
27647;DHT22;42229;51.230;6.240;2022-09-06T16:18:35;39.40;36.70
27647;DHT22;42229;51.230;6.240;2022-09-06T16:21:03;39.50;38.40
27647;DHT22;42229;51.230;6.240;2022-09-06T16:23:34;39.60;38.30
27647;DHT22;42229;51.230;6.240;2022-09-06T16:26:04;39.60;36.10
27647;DHT22;42229;51.230;6.240;2022-09-06T16:28:32;39.70;38.60
27647;DHT22;42229;51.230;6.240;2022-09-06T16:31:00;39.80;37.30
27647;DHT22;42229;51.230;6.240;2022-09-06T16:33:31;39.80;38.80
27647;DHT22;42229;51.230;6.240;2022-09-06T16:35:59;39.90;37.50
27647;DHT22;42229;51.230;6.240;2022-09-06T16:38:29;40.00;37.90
27647;DHT22;42229;51.230;6.240;2022-09-06T16:40:58;40.00;37.30
27647;DHT22;42229;51.230;6.240;2022-09-06T16:43:26;40.00;37.80
27647;DHT22;42229;51.230;6.240;2022-09-06T16:45:54;40.00;37.50
27647;DHT22;42229;51.230;6.240;2022-09-06T16:48:24;40.00;36.70
27647;DHT22;42229;51.230;6.240;2022-09-06T16:50:50;40.00;37.70
27647;DHT22;42229;51.230;6.240;2022-09-06T16:53:17;39.90;37.20
27647;DHT22;42229;51.230;6.240;2022-09-06T16:55:43;39.90;37.00
27647;DHT22;42229;51.230;6.240;2022-09-06T16:58:09;39.90;37.70
27647;DHT22;42229;51.230;6.240;2022-09-06T17:00:39;39.80;38.60
27647;DHT22;42229;51.230;6.240;2022-09-06T17:03:10;39.80;37.30
27647;DHT22;42229;51.230;6.240;2022-09-06T17:05:39;39.70;38.30
27647;DHT22;42229;51.230;6.240;2022-09-06T17:08:05;39.60;37.20